WARR/SUB METAR and TAF weather

Enter ICAO airport designator
Station Type Date Time Source
WARR METAR 2022/01/25 04:00 UTC NOAA

WARR 250400Z 29014KT 9999 BKN020 33/23 Q1005 NOSIG METAR WABB 250400Z 02006KT 020V250 9000 -RA FEW017CB SCT018 29/26 Q1007 NOSIG=RMK CB AT NW METAR WAAA 250400Z 32008KT 9999 SCT019 31/25 Q1007 NOSIG


Station Type Date Time Source
WARR Decoded METAR 2022/01/25 04:00 UTC NOAA

Station name not available
Jan 24, 2022 - 11:00 PM EST / 2022.01.25 0400 UTC
Wind: from the WNW (290 degrees) at 16 MPH (14 KT) (direction variable):0
Visibility: greater than 7 mile(s):0
Sky conditions: mostly cloudy
Weather: Cumulonimbus clouds observed
Temperature: 91 F (33 C)
Heat index: 99.1 F (37.3 C):1
Dew Point: 73 F (23 C)
Relative Humidity: 55%
Pressure (altimeter): 29.68 in. Hg (1005 hPa)
ob: WARR 250400Z 29014KT 9999 BKN020 33/23 Q1005 NOSIG METAR WABB 250400Z 02006KT 020V250 9000 -RA FEW017CB SCT018 29/26 Q1007 NOSIG=RMK CB AT NW METAR WAAA 250400Z 32008KT 9999 SCT019 31/25 Q1007 NOSIG
cycle: 4

Station Type Date Time Source
WARR TAF 2022/01/24 18:12 UTC NOAA

TAF WARR 241700Z 2418/2518 28008KT 4000 HZ SCT020
BECMG 2501/2503 27014KT 9999 NSW PROB30
TEMPO 2509/2513 4000 TSRA SCT020CB
BECMG 2513/2515 28008KT 5000 HZ

Example: see airport list